Time;durP1;ratioP1;P1;durP2;ratioP2;P2;SDS_P1;SDS_P2;PMS_P1;PMS_P2;Temp;Humidity;BMP_temperature;BMP_pressure;BME280_temperature;BME280_humidity;BME280_pressure;Samples;Min_cycle;Max_cycle;Signal;HPM_P1;HPM_P2
2023/08/30 00:01:02;;;;;;;11.32;7.20;;;;;;;12.80;100.00;100712.16;5071593;28;20052;-54
2023/08/30 00:03:31;;;;;;;9.57;6.38;;;;;;;12.73;100.00;100708.31;5071921;28;20612;-52
2023/08/30 00:06:05;;;;;;;10.80;7.68;;;;;;;12.79;100.00;100701.75;5070378;28;20060;-54
2023/08/30 00:08:33;;;;;;;11.88;6.95;;;;;;;12.73;100.00;100699.56;5071767;28;20048;-53
2023/08/30 00:11:02;;;;;;;10.82;7.00;;;;;;;12.75;100.00;100701.13;5071664;28;20067;-53
2023/08/30 00:13:31;;;;;;;11.25;7.15;;;;;;;12.71;100.00;100702.31;5070434;28;20419;-54
2023/08/30 00:16:03;;;;;;;10.65;6.63;;;;;;;12.71;100.00;100702.31;5071683;28;20380;-53
2023/08/30 00:18:31;;;;;;;10.10;6.55;;;;;;;12.78;100.00;100694.78;5071585;28;20124;-54
2023/08/30 00:21:00;;;;;;;9.60;5.95;;;;;;;12.73;100.00;100697.75;5071620;28;20056;-53
2023/08/30 00:23:29;;;;;;;11.13;6.65;;;;;;;12.64;100.00;100691.38;5071538;28;20044;-52
2023/08/30 00:25:57;;;;;;;10.95;6.75;;;;;;;12.73;100.00;100686.38;5071586;28;20048;-52
2023/08/30 00:28:25;;;;;;;10.70;6.75;;;;;;;12.65;100.00;100685.16;5071502;28;20048;-52
2023/08/30 00:30:55;;;;;;;10.13;6.53;;;;;;;12.64;100.00;100685.28;5071398;28;20508;-53
2023/08/30 00:33:23;;;;;;;10.02;6.70;;;;;;;12.62;100.00;100682.72;5071239;28;20377;-53
2023/08/30 00:35:57;;;;;;;9.23;6.05;;;;;;;12.61;100.00;100675.81;5070852;28;20065;-54
2023/08/30 00:38:26;;;;;;;10.10;6.53;;;;;;;12.60;100.00;100671.47;5071042;28;20084;-52
2023/08/30 00:40:56;;;;;;;10.90;6.20;;;;;;;12.54;100.00;100674.56;5069887;28;20044;-54
2023/08/30 00:43:24;;;;;;;11.02;6.35;;;;;;;12.57;100.00;100677.00;5071302;28;20044;-51
2023/08/30 00:45:52;;;;;;;10.07;6.75;;;;;;;12.49;100.00;100674.09;5071301;28;20131;-53
2023/08/30 00:48:21;;;;;;;11.25;6.68;;;;;;;12.47;100.00;100668.09;5071213;28;20049;-53
2023/08/30 00:50:50;;;;;;;10.85;6.45;;;;;;;12.53;100.00;100675.53;5071197;28;20052;-53
2023/08/30 00:53:18;;;;;;;9.45;6.13;;;;;;;12.45;100.00;100676.13;5071234;28;20510;-55
2023/08/30 00:55:46;;;;;;;10.73;6.15;;;;;;;12.41;100.00;100679.94;5069747;28;20376;-53
2023/08/30 00:58:16;;;;;;;10.48;6.28;;;;;;;12.33;100.00;100677.88;5068020;28;20063;-53
2023/08/30 01:00:45;;;;;;;9.40;6.50;;;;;;;12.30;100.00;100678.13;5069854;28;20131;-54
2023/08/30 01:03:13;;;;;;;10.02;6.30;;;;;;;12.34;100.00;100679.56;5069895;28;20059;-54
2023/08/30 01:05:41;;;;;;;12.55;7.07;;;;;;;12.39;100.00;100681.84;5067431;28;20040;-55
2023/08/30 01:08:11;;;;;;;9.32;6.25;;;;;;;12.38;100.00;100676.69;5066681;28;20048;-54
2023/08/30 01:10:58;;;;;;;11.23;6.88;;;;;;;12.35;100.00;100672.47;5071064;28;20059;-55
2023/08/30 01:13:32;;;;;;;9.60;6.60;;;;;;;12.29;100.00;100676.41;5071026;28;20041;-55
2023/08/30 01:16:01;;;;;;;10.23;7.10;;;;;;;12.21;100.00;100673.53;5070970;28;20053;-55
2023/08/30 01:18:35;;;;;;;10.98;6.57;;;;;;;12.34;100.00;100676.94;5070950;28;20060;-54
2023/08/30 01:21:05;;;;;;;11.68;6.35;;;;;;;12.29;100.00;100673.78;5069507;28;20072;-55
2023/08/30 01:23:43;;;;;;;8.85;5.95;;;;;;;12.22;100.00;100667.31;5071025;28;20053;-53
2023/08/30 01:26:18;;;;;;;9.30;6.07;;;;;;;12.22;100.00;100664.66;5070660;28;20056;-54
2023/08/30 01:28:49;;;;;;;11.13;6.95;;;;;;;12.18;100.00;100664.03;5070497;28;20518;-53
2023/08/30 01:31:17;;;;;;;8.82;6.07;;;;;;;12.12;100.00;100661.88;5069465;28;20059;-53
2023/08/30 01:33:48;;;;;;;10.52;7.00;;;;;;;12.04;100.00;100658.13;5070264;28;20493;-54
2023/08/30 01:36:17;;;;;;;10.38;6.78;;;;;;;11.96;100.00;100664.81;5070031;28;20044;-54
2023/08/30 01:38:46;;;;;;;10.02;7.43;;;;;;;12.00;100.00;100662.78;5070599;28;20139;-53
2023/08/30 01:41:15;;;;;;;12.02;7.05;;;;;;;12.02;100.00;100657.41;5074008;28;20048;-53
2023/08/30 01:43:48;;;;;;;11.17;6.93;;;;;;;12.01;100.00;100664.44;5074381;28;20558;-52
2023/08/30 01:46:19;;;;;;;10.45;7.00;;;;;;;11.93;100.00;100659.75;5074240;28;20036;-52
2023/08/30 01:48:48;;;;;;;11.27;6.60;;;;;;;11.99;100.00;100661.09;5074228;28;20047;-54
2023/08/30 01:51:17;;;;;;;9.65;6.35;;;;;;;11.93;100.00;100654.47;5074225;28;20049;-54
2023/08/30 01:53:47;;;;;;;9.80;6.30;;;;;;;11.91;100.00;100652.91;5074412;28;20044;-53
2023/08/30 01:56:15;;;;;;;10.15;6.22;;;;;;;11.90;100.00;100657.34;5074087;28;20106;-54
2023/08/30 01:58:43;;;;;;;10.90;6.88;;;;;;;11.86;100.00;100658.47;5074074;28;20045;-55
2023/08/30 02:01:13;;;;;;;12.13;7.25;;;;;;;11.79;100.00;100663.41;5074310;28;20072;-54
2023/08/30 02:03:44;;;;;;;9.52;6.45;;;;;;;11.84;100.00;100653.34;5072690;28;20143;-54
2023/08/30 02:06:17;;;;;;;10.23;6.95;;;;;;;11.83;100.00;100654.31;5072541;28;20063;-54
2023/08/30 02:08:54;;;;;;;9.60;7.00;;;;;;;11.83;100.00;100659.56;5073839;28;20499;-55
2023/08/30 02:11:27;;;;;;;11.80;7.03;;;;;;;11.80;100.00;100649.25;5073953;28;20041;-54
2023/08/30 02:13:59;;;;;;;11.90;6.90;;;;;;;11.88;100.00;100645.22;5073852;28;20037;-55
2023/08/30 02:16:29;;;;;;;12.33;6.70;;;;;;;11.83;100.00;100648.19;5073759;28;20609;-53
2023/08/30 02:18:57;;;;;;;9.93;6.63;;;;;;;11.79;100.00;100649.34;5073843;28;20123;-54
2023/08/30 02:21:26;;;;;;;9.93;6.95;;;;;;;11.81;100.00;100644.84;5073797;28;20045;-66
2023/08/30 02:23:54;;;;;;;12.30;7.57;;;;;;;11.86;100.00;100647.13;5072235;28;21014;-66
2023/08/30 02:26:22;;;;;;;9.75;6.85;;;;;;;11.81;100.00;100648.28;5070189;28;20056;-66
2023/08/30 02:28:51;;;;;;;11.73;6.80;;;;;;;11.89;100.00;100639.84;5072422;28;20064;-65
2023/08/30 02:31:19;;;;;;;10.45;6.47;;;;;;;11.93;100.00;100638.66;5069764;28;20403;-66
2023/08/30 02:33:51;;;;;;;14.63;7.00;;;;;;;11.93;100.00;100643.94;5069730;28;20403;-66
2023/08/30 02:36:19;;;;;;;10.88;7.25;;;;;;;11.95;100.00;100639.41;5069867;28;20507;-65
2023/08/30 02:38:50;;;;;;;11.50;7.53;;;;;;;11.91;100.00;100631.81;5069116;28;20041;-66
2023/08/30 02:41:18;;;;;;;11.18;7.30;;;;;;;11.99;100.00;100637.38;5070001;28;20049;-66
2023/08/30 02:43:46;;;;;;;11.43;7.35;;;;;;;12.07;100.00;100628.91;5069914;28;20079;-65
2023/08/30 02:46:14;;;;;;;10.75;7.10;;;;;;;12.07;100.00;100627.09;5069768;28;20835;-66
2023/08/30 02:48:42;;;;;;;10.60;7.03;;;;;;;12.04;100.00;100629.13;5069041;28;20492;-65
2023/08/30 02:51:12;;;;;;;10.82;6.93;;;;;;;12.00;100.00;100624.09;5069489;28;20656;-66
2023/08/30 02:53:40;;;;;;;11.27;7.53;;;;;;;12.03;100.00;100617.75;5067665;28;20052;-65
2023/08/30 02:56:08;;;;;;;11.50;7.50;;;;;;;12.09;100.00;100621.72;5072642;28;20151;-65
2023/08/30 02:58:36;;;;;;;10.50;6.82;;;;;;;12.12;100.00;100605.66;5069094;28;20061;-65
2023/08/30 03:01:04;;;;;;;11.07;7.22;;;;;;;12.10;100.00;100610.22;5069839;28;20411;-66
2023/08/30 03:03:32;;;;;;;10.60;7.30;;;;;;;12.11;100.00;100604.84;5071280;28;20053;-65
2023/08/30 03:06:01;;;;;;;11.23;7.50;;;;;;;12.10;100.00;100603.16;5070753;28;20048;-66
2023/08/30 03:08:32;;;;;;;12.63;7.13;;;;;;;12.07;100.00;100602.56;5072104;28;20048;-65
2023/08/30 03:11:09;;;;;;;10.70;8.15;;;;;;;12.17;100.00;100600.91;5072584;28;20037;-65
2023/08/30 03:13:37;;;;;;;12.48;7.75;;;;;;;12.15;100.00;100605.47;5072533;28;20052;-65
2023/08/30 03:16:12;;;;;;;12.50;8.43;;;;;;;12.11;100.00;100602.19;5072581;28;20123;-65
2023/08/30 03:18:40;;;;;;;11.05;7.63;;;;;;;12.17;100.00;100607.03;5069381;28;20956;-65
2023/08/30 03:21:09;;;;;;;11.52;8.15;;;;;;;12.16;100.00;100607.13;5069164;28;20055;-65
2023/08/30 03:23:40;;;;;;;11.50;8.30;;;;;;;12.25;100.00;100595.88;5072448;28;20055;-65
2023/08/30 03:26:12;;;;;;;11.90;7.82;;;;;;;12.24;100.00;100594.19;5072421;28;20052;-65
2023/08/30 03:28:41;;;;;;;13.27;7.47;;;;;;;12.26;100.00;100594.94;5069786;28;20056;-65
2023/08/30 03:31:13;;;;;;;12.10;7.38;;;;;;;12.29;100.00;100586.78;5069187;28;20032;-65
2023/08/30 03:33:42;;;;;;;;;;;;;;;12.33;100.00;100575.03;5068537;28;20044;-65
2023/08/30 03:36:13;;;;;;;12.73;7.85;;;;;;;12.36;100.00;100575.78;5068077;28;19931;-65
2023/08/30 03:38:43;;;;;;;11.60;8.02;;;;;;;12.31;100.00;100565.56;5070469;28;20438;-65
2023/08/30 03:41:12;;;;;;;11.40;8.25;;;;;;;12.44;100.00;100563.66;5068620;28;20113;-64
2023/08/30 03:43:41;;;;;;;15.25;9.45;;;;;;;12.41;100.00;100552.53;5067988;28;20491;-64
2023/08/30 03:46:11;;;;;;;11.65;9.00;;;;;;;12.39;100.00;100559.69;5068862;28;20070;-65
2023/08/30 03:48:40;;;;;;;12.65;8.40;;;;;;;12.34;100.00;100552.16;5072010;28;20052;-64
2023/08/30 03:51:08;;;;;;;12.88;9.07;;;;;;;12.34;100.00;100550.34;5070193;28;20059;-64
2023/08/30 03:53:36;;;;;;;14.65;9.45;;;;;;;12.28;100.00;100555.25;5066460;28;20422;-64
2023/08/30 03:56:06;;;;;;;13.65;9.23;;;;;;;12.24;100.00;100557.28;5068733;28;20059;-64
2023/08/30 03:58:34;;;;;;;13.38;9.90;;;;;;;12.13;100.00;100541.44;5070998;28;20510;-65
2023/08/30 04:01:02;;;;;;;14.05;10.43;;;;;;;12.15;100.00;100542.19;5070968;28;20044;-65
2023/08/30 04:03:33;;;;;;;13.07;10.00;;;;;;;12.18;100.00;100548.03;5067427;28;20044;-65
2023/08/30 04:06:01;;;;;;;14.75;9.82;;;;;;;12.05;100.00;100535.94;5070156;28;20048;-65
2023/08/30 04:08:30;;;;;;;14.88;10.55;;;;;;;12.09;100.00;100530.31;5071687;28;20053;-65
2023/08/30 04:10:58;;;;;;;16.33;11.07;;;;;;;12.14;100.00;100524.69;5068757;28;20075;-65
2023/08/30 04:13:27;;;;;;;14.55;10.13;;;;;;;12.14;100.00;100535.22;5068652;28;20048;-65
2023/08/30 04:15:58;;;;;;;14.20;10.25;;;;;;;12.14;100.00;100529.97;5072062;28;20527;-65
2023/08/30 04:18:26;;;;;;;14.70;11.00;;;;;;;12.00;100.00;100531.84;5071569;28;20076;-65
2023/08/30 04:20:54;;;;;;;15.15;10.20;;;;;;;11.95;100.00;100514.72;5071304;28;20476;-65
2023/08/30 04:23:22;;;;;;;14.15;10.07;;;;;;;11.93;100.00;100506.91;5071406;28;20056;-65
2023/08/30 04:25:50;;;;;;;13.15;9.82;;;;;;;11.89;100.00;100510.72;5067782;28;20041;-66
2023/08/30 04:28:19;;;;;;;13.25;10.40;;;;;;;11.81;100.00;100513.09;5068331;28;20052;-65
2023/08/30 04:30:48;;;;;;;14.23;10.27;;;;;;;11.78;100.00;100513.31;5067910;28;20052;-66
2023/08/30 04:33:16;;;;;;;14.90;10.80;;;;;;;11.83;100.00;100512.03;5068176;28;20098;-66
2023/08/30 04:35:51;;;;;;;15.15;9.93;;;;;;;11.82;100.00;100512.13;5068378;28;20366;-66
2023/08/30 04:38:20;;;;;;;14.40;10.45;;;;;;;11.74;100.00;100514.50;5066269;28;20056;-66
2023/08/30 04:40:48;;;;;;;15.65;10.70;;;;;;;11.74;100.00;100502.19;5067554;28;20423;-66
2023/08/30 04:43:16;;;;;;;17.10;10.45;;;;;;;11.67;100.00;100506.25;5067724;28;20048;-66
2023/08/30 04:45:48;;;;;;;14.93;10.70;;;;;;;11.71;100.00;100506.81;5067576;28;20416;-66
2023/08/30 04:48:17;;;;;;;14.55;10.55;;;;;;;11.69;100.00;100511.38;5067859;28;20399;-66
2023/08/30 04:50:45;;;;;;;14.30;10.48;;;;;;;11.63;100.00;100510.88;5067877;28;20763;-66
2023/08/30 04:53:13;;;;;;;15.05;10.25;;;;;;;11.66;100.00;100497.47;5066432;28;20051;-66
2023/08/30 04:55:41;;;;;;;15.95;10.68;;;;;;;11.57;100.00;100499.97;5068731;28;20049;-66
2023/08/30 04:58:09;;;;;;;14.57;11.18;;;;;;;11.54;100.00;100502.84;5069313;28;20040;-66
2023/08/30 05:00:38;;;;;;;14.45;10.85;;;;;;;11.43;100.00;100509.72;5067144;28;20048;-66
2023/08/30 05:03:06;;;;;;;17.10;11.25;;;;;;;11.41;100.00;100508.16;5070819;28;20495;-66
2023/08/30 05:05:36;;;;;;;16.25;11.10;;;;;;;11.37;100.00;100504.94;5069923;28;20845;-66
2023/08/30 05:08:05;;;;;;;16.38;10.75;;;;;;;11.41;100.00;100505.53;5066193;28;20056;-66
2023/08/30 05:10:33;;;;;;;15.75;10.85;;;;;;;11.39;100.00;100503.00;5067736;28;20129;-66
2023/08/30 05:13:01;;;;;;;15.45;10.20;;;;;;;11.42;100.00;100507.22;5067886;28;20048;-66
2023/08/30 05:15:29;;;;;;;15.32;10.68;;;;;;;11.37;100.00;100499.66;5069980;28;20049;-67
2023/08/30 05:17:58;;;;;;;15.82;10.82;;;;;;;11.38;100.00;100498.69;5071342;28;20045;-66
2023/08/30 05:20:26;;;;;;;14.75;10.90;;;;;;;11.36;100.00;100497.13;5071939;28;20044;-66
2023/08/30 05:22:55;;;;;;;14.27;10.25;;;;;;;11.39;100.00;100487.22;5074686;28;20150;-66
2023/08/30 05:25:24;;;;;;;16.13;10.43;;;;;;;11.29;100.00;100488.88;5072706;28;20060;-66
2023/08/30 05:27:52;;;;;;;16.20;10.68;;;;;;;11.32;100.00;100492.09;5071384;28;20048;-66
2023/08/30 05:30:20;;;;;;;15.18;11.10;;;;;;;11.31;100.00;100479.88;5074453;28;20051;-65
2023/08/30 05:32:48;;;;;;;16.45;10.93;;;;;;;11.31;100.00;100473.78;5074277;28;20049;-66
2023/08/30 05:35:17;;;;;;;16.10;11.48;;;;;;;11.35;100.00;100467.34;5072514;28;20381;-66
2023/08/30 05:37:48;;;;;;;14.32;11.18;;;;;;;11.31;100.00;100468.50;5074013;28;20063;-66
2023/08/30 05:40:17;;;;;;;17.95;12.02;;;;;;;11.40;100.00;100464.34;5074386;28;20112;-66
2023/08/30 05:42:46;;;;;;;16.42;11.40;;;;;;;11.41;100.00;100463.41;5074375;28;20056;-66
2023/08/30 05:45:14;;;;;;;16.38;11.95;;;;;;;11.41;100.00;100468.66;5074283;28;20458;-66
2023/08/30 05:47:42;;;;;;;15.50;11.13;;;;;;;11.44;100.00;100461.38;5074428;28;20059;-66
2023/08/30 05:50:10;;;;;;;16.65;12.98;;;;;;;11.47;100.00;100462.94;5072828;28;20076;-66
2023/08/30 05:52:41;;;;;;;17.88;11.93;;;;;;;11.50;100.00;100462.72;5074299;28;20049;-66
2023/08/30 05:55:09;;;;;;;16.65;12.23;;;;;;;11.48;100.00;100459.38;5073915;28;20417;-66
2023/08/30 05:57:39;;;;;;;15.52;12.60;;;;;;;11.60;100.00;100461.09;5070432;28;20127;-66
2023/08/30 06:00:08;;;;;;;17.60;13.40;;;;;;;11.62;100.00;100455.69;5070908;28;20530;-66
2023/08/30 06:02:36;;;;;;;18.08;13.88;;;;;;;11.66;100.00;100455.34;5070172;28;20395;-66
2023/08/30 06:05:05;;;;;;;20.25;15.10;;;;;;;11.72;100.00;100455.84;5071182;28;20127;-66
2023/08/30 06:07:34;;;;;;;22.00;15.07;;;;;;;11.78;100.00;100452.72;5069532;28;20500;-65
2023/08/30 06:10:03;;;;;;;20.50;15.95;;;;;;;11.82;100.00;100451.53;5073255;28;20041;-65
2023/08/30 06:12:32;;;;;;;21.85;16.40;;;;;;;11.91;100.00;100445.56;5070134;28;20048;-65
2023/08/30 06:15:03;;;;;;;23.60;16.70;;;;;;;11.98;100.00;100446.81;5070279;28;20048;-66
2023/08/30 06:17:31;;;;;;;24.45;18.77;;;;;;;12.12;100.00;100443.09;5068637;28;20448;-65
2023/08/30 06:20:00;;;;;;;21.73;19.13;;;;;;;12.28;100.00;100436.59;5070488;28;20055;-65
2023/08/30 06:22:28;;;;;;;26.00;19.85;;;;;;;12.36;100.00;100428.09;5073118;28;20051;-65
2023/08/30 06:24:56;;;;;;;27.08;20.27;;;;;;;12.48;100.00;100438.50;5070135;28;20049;-64
2023/08/30 06:27:24;;;;;;;26.27;19.48;;;;;;;12.57;100.00;100436.09;5069056;28;20064;-65
2023/08/30 06:29:52;;;;;;;21.80;18.05;;;;;;;12.66;100.00;100436.19;5070228;28;20057;-65
2023/08/30 06:32:22;;;;;;;23.17;17.60;;;;;;;12.74;100.00;100442.66;5071146;28;20048;-65
2023/08/30 06:34:50;;;;;;;22.48;17.13;;;;;;;12.82;100.00;100445.53;5073121;28;20044;-65
2023/08/30 06:37:18;;;;;;;20.48;16.90;;;;;;;12.92;100.00;100448.25;5068557;28;20513;-54
2023/08/30 06:39:46;;;;;;;20.45;16.33;;;;;;;12.93;100.00;100453.41;5071234;28;20052;-55
2023/08/30 06:42:14;;;;;;;21.55;17.17;;;;;;;13.02;100.00;100451.81;5073355;28;20075;-55
2023/08/30 06:44:42;;;;;;;22.15;15.85;;;;;;;13.04;100.00;100449.06;5073121;28;20036;-54
2023/08/30 06:47:10;;;;;;;20.80;15.52;;;;;;;13.11;100.00;100442.31;5072926;28;20044;-54
2023/08/30 06:49:40;;;;;;;22.02;15.25;;;;;;;13.15;100.00;100441.91;5069350;28;20403;-55
2023/08/30 06:52:08;;;;;;;21.30;15.23;;;;;;;13.22;100.00;100433.50;5070115;28;20056;-55
2023/08/30 06:54:36;;;;;;;19.95;15.50;;;;;;;13.27;100.00;100439.25;5071689;28;20049;-54
2023/08/30 06:57:06;;;;;;;19.40;14.30;;;;;;;13.34;100.00;100440.41;5073110;28;20560;-55
2023/08/30 06:59:37;;;;;;;18.00;14.13;;;;;;;13.40;100.00;100445.19;5073020;28;20053;-55
2023/08/30 07:02:05;;;;;;;21.38;14.23;;;;;;;13.38;100.00;100441.84;5072887;28;20491;-55
2023/08/30 07:04:33;;;;;;;20.17;14.30;;;;;;;13.35;100.00;100440.28;5072968;28;20048;-56
2023/08/30 07:07:05;;;;;;;17.33;14.20;;;;;;;13.39;100.00;100432.97;5073158;28;20094;-55
2023/08/30 07:09:36;;;;;;;20.25;15.25;;;;;;;13.48;100.00;100429.56;5072362;28;20048;-53
2023/08/30 07:12:05;;;;;;;20.10;14.50;;;;;;;13.52;100.00;100430.97;5072185;28;20051;-55
2023/08/30 07:14:33;;;;;;;16.23;14.48;;;;;;;13.51;100.00;100433.72;5072668;28;20084;-55
2023/08/30 07:17:01;;;;;;;20.35;13.43;;;;;;;13.58;100.00;100436.69;5072583;28;20060;-54
2023/08/30 07:19:29;;;;;;;18.08;14.70;;;;;;;13.62;100.00;100438.97;5072704;28;20517;-54
2023/08/30 07:21:57;;;;;;;17.48;14.02;;;;;;;13.65;100.00;100443.16;5072607;28;20406;-54
2023/08/30 07:24:27;;;;;;;19.73;15.77;;;;;;;13.69;100.00;100442.75;5070245;28;20135;-53
2023/08/30 07:26:55;;;;;;;19.08;15.45;;;;;;;13.72;100.00;100443.47;5068984;28;20442;-53
2023/08/30 07:29:23;;;;;;;18.75;15.23;;;;;;;13.71;100.00;100447.91;5069760;28;20041;-53
2023/08/30 07:31:53;;;;;;;17.95;14.82;;;;;;;13.75;100.00;100438.75;5072279;28;20048;-54
2023/08/30 07:34:22;;;;;;;19.33;13.82;;;;;;;13.77;100.00;100438.59;5072375;28;20059;-54
2023/08/30 07:36:50;;;;;;;17.77;13.70;;;;;;;13.73;100.00;100437.19;5071359;28;20055;-53
2023/08/30 07:39:18;;;;;;;19.98;14.77;;;;;;;13.72;100.00;100433.72;5069241;28;20056;-53
2023/08/30 07:41:48;;;;;;;19.60;13.55;;;;;;;13.65;100.00;100436.06;5068633;28;20400;-53
2023/08/30 07:44:16;;;;;;;19.55;13.25;;;;;;;13.62;100.00;100432.81;5072272;28;20056;-54
2023/08/30 07:46:44;;;;;;;19.17;13.13;;;;;;;13.63;100.00;100434.50;5072141;28;20043;-53
2023/08/30 07:49:13;;;;;;;19.67;12.25;;;;;;;13.68;100.00;100427.84;5070694;28;20048;-52
2023/08/30 07:51:41;;;;;;;18.13;13.07;;;;;;;13.65;100.00;100420.19;5067887;28;20070;-66
2023/08/30 07:54:09;;;;;;;17.55;11.90;;;;;;;13.62;100.00;100422.25;5068687;28;20048;-67
2023/08/30 07:56:37;;;;;;;16.30;12.70;;;;;;;13.44;100.00;100414.94;5071904;28;20181;-67
2023/08/30 07:59:09;;;;;;;18.10;12.68;;;;;;;13.45;100.00;100415.75;5070551;28;20056;-67
2023/08/30 08:01:40;;;;;;;17.48;13.40;;;;;;;13.42;100.00;100416.84;5069953;28;20123;-67
2023/08/30 08:04:08;;;;;;;20.02;14.60;;;;;;;13.51;100.00;100420.50;5070787;28;20357;-67
2023/08/30 08:06:36;;;;;;;19.23;13.40;;;;;;;13.45;100.00;100421.03;5069997;28;20040;-67
2023/08/30 08:09:07;;;;;;;18.55;12.70;;;;;;;13.40;100.00;100412.66;5071984;28;20127;-67
2023/08/30 08:11:35;;;;;;;17.30;11.95;;;;;;;13.40;100.00;100417.94;5071964;28;20048;-67
2023/08/30 08:14:06;;;;;;;21.33;12.73;;;;;;;13.45;100.00;100407.84;5070647;28;20071;-56
2023/08/30 08:16:36;;;;;;;18.17;12.10;;;;;;;13.28;100.00;100407.41;5067508;28;20044;-55
2023/08/30 08:19:04;;;;;;;17.98;12.77;;;;;;;13.33;100.00;100402.59;5070666;28;20126;-55
2023/08/30 08:21:33;;;;;;;15.73;10.00;;;;;;;13.27;100.00;100402.28;5066712;28;20048;-55
2023/08/30 08:24:01;;;;;;;16.10;10.75;;;;;;;13.35;100.00;100405.97;5069834;28;20375;-55
2023/08/30 08:26:29;;;;;;;17.75;10.85;;;;;;;13.43;100.00;100393.91;5071354;28;20395;-55
2023/08/30 08:28:58;;;;;;;15.25;10.43;;;;;;;13.42;100.00;100389.63;5069040;28;20080;-54
2023/08/30 08:31:28;;;;;;;14.82;9.73;;;;;;;13.34;100.00;100382.28;5068444;28;20079;-56
2023/08/30 08:34:09;;;;;;;17.67;10.50;;;;;;;13.40;100.00;100378.31;5068363;28;20056;-56
2023/08/30 08:36:38;;;;;;;17.42;10.20;;;;;;;13.43;100.00;100367.50;5066297;28;20053;-54
2023/08/30 08:39:06;;;;;;;15.40;10.98;;;;;;;13.42;100.00;100365.84;5068295;28;20055;-56
2023/08/30 08:41:42;;;;;;;15.68;11.10;;;;;;;13.42;100.00;100361.38;5070692;28;20140;-56
2023/08/30 08:44:11;;;;;;;15.80;10.50;;;;;;;13.43;100.00;100357.78;5071299;28;20048;-55
2023/08/30 08:46:40;;;;;;;16.98;11.65;;;;;;;13.42;100.00;100363.19;5069439;28;20047;-57
2023/08/30 08:49:14;;;;;;;15.35;11.50;;;;;;;13.48;100.00;100357.38;5069820;28;20041;-56
2023/08/30 08:51:43;;;;;;;16.13;12.23;;;;;;;13.53;100.00;100340.16;5074250;28;20388;-56
2023/08/30 08:54:12;;;;;;;17.67;12.02;;;;;;;13.54;100.00;100348.94;5075514;28;20036;-55
2023/08/30 08:56:40;;;;;;;14.55;12.23;;;;;;;13.65;100.00;100337.47;5075252;28;20047;-55
2023/08/30 08:59:08;;;;;;;18.40;12.95;;;;;;;13.74;100.00;100341.94;5074625;28;20080;-56
2023/08/30 09:01:39;;;;;;;18.48;13.40;;;;;;;13.75;100.00;100332.22;5071212;28;20052;-55
2023/08/30 09:04:11;;;;;;;16.48;11.98;;;;;;;13.80;100.00;100332.66;5072059;28;20055;-55
2023/08/30 09:06:40;;;;;;;16.98;13.13;;;;;;;13.77;100.00;100333.75;5074132;28;20036;-55
2023/08/30 09:09:09;;;;;;;16.83;13.35;;;;;;;13.79;100.00;100334.44;5075240;28;20036;-56
2023/08/30 09:11:37;;;;;;;19.58;15.25;;;;;;;13.75;100.00;100337.50;5075104;28;20052;-55
2023/08/30 09:14:26;;;;;;;21.13;14.73;;;;;;;13.80;100.00;100332.66;5073838;28;20055;-56
2023/08/30 09:16:58;;;;;;;19.50;15.55;;;;;;;13.81;100.00;100337.81;5074814;28;20127;-55
2023/08/30 09:19:27;;;;;;;19.90;15.37;;;;;;;13.81;100.00;100332.50;5071775;28;20495;-55
2023/08/30 09:21:57;;;;;;;17.92;14.80;;;;;;;13.68;100.00;100330.09;5069757;28;21014;-55
2023/08/30 09:24:26;;;;;;;19.17;15.60;;;;;;;13.74;100.00;100333.19;5072542;28;20041;-55
2023/08/30 09:26:55;;;;;;;18.27;14.68;;;;;;;13.82;100.00;100330.69;5074806;28;20036;-56
2023/08/30 09:29:24;;;;;;;19.80;14.93;;;;;;;13.74;100.00;100326.06;5073381;28;20114;-55
2023/08/30 09:31:53;;;;;;;15.05;13.00;;;;;;;13.90;100.00;100328.22;5071236;28;20099;-55
2023/08/30 09:34:25;;;;;;;17.17;13.88;;;;;;;13.77;100.00;100324.97;5071817;28;20054;-54
2023/08/30 09:36:55;;;;;;;17.17;13.85;;;;;;;13.82;100.00;100328.88;5074149;28;20055;-55
2023/08/30 09:39:23;;;;;;;17.83;13.30;;;;;;;13.82;100.00;100320.13;5074474;28;20080;-55
2023/08/30 09:41:52;;;;;;;17.90;13.10;;;;;;;13.90;100.00;100320.28;5074442;28;20055;-56
2023/08/30 09:44:21;;;;;;;14.68;12.43;;;;;;;13.95;100.00;100323.38;5074421;28;20048;-55
2023/08/30 09:46:52;;;;;;;12.95;9.82;;;;;;;13.92;100.00;100315.72;5073703;28;20052;-54
2023/08/30 09:49:22;;;;;;;13.35;10.13;;;;;;;13.95;100.00;100310.16;5070778;28;20053;-55
2023/08/30 09:51:51;;;;;;;14.30;9.65;;;;;;;14.01;100.00;100311.44;5068807;28;20260;-54
2023/08/30 09:54:24;;;;;;;13.95;9.48;;;;;;;14.07;100.00;100299.47;5070874;28;20060;-54
2023/08/30 09:56:57;;;;;;;12.32;9.45;;;;;;;13.96;100.00;100305.69;5073418;28;20075;-55
2023/08/30 09:59:27;;;;;;;12.57;8.73;;;;;;;14.08;100.00;100304.63;5073313;28;20043;-55
2023/08/30 10:02:00;;;;;;;13.63;8.50;;;;;;;14.14;100.00;100295.31;5069361;28;20500;-55
2023/08/30 10:04:29;;;;;;;12.65;9.13;;;;;;;14.27;100.00;100297.69;5072058;28;20048;-55
2023/08/30 10:06:58;;;;;;;12.80;9.25;;;;;;;14.30;100.00;100300.91;5073988;28;20044;-55
2023/08/30 10:09:30;;;;;;;11.63;8.95;;;;;;;14.39;100.00;100298.41;5073794;28;20048;-55
2023/08/30 10:12:01;;;;;;;12.88;8.70;;;;;;;14.40;100.00;100298.28;5069963;28;20381;-54
2023/08/30 10:14:29;;;;;;;12.35;8.57;;;;;;;14.44;100.00;100290.88;5070350;28;20056;-55
2023/08/30 10:17:02;;;;;;;11.95;8.55;;;;;;;14.50;100.00;100285.88;5069836;28;20051;-55
2023/08/30 10:19:32;;;;;;;11.00;8.02;;;;;;;14.58;100.00;100285.19;5072702;28;20090;-55
2023/08/30 10:22:04;;;;;;;10.90;8.05;;;;;;;14.63;100.00;100285.66;5074020;28;20051;-54
2023/08/30 10:24:38;;;;;;;;;;;;;;;14.66;100.00;100290.66;5074880;28;20049;-53
2023/08/30 10:27:25;;;;;;;12.55;8.73;;;;;;;14.72;100.00;100283.13;5073423;28;20371;-54
2023/08/30 10:29:55;;;;;;;11.45;8.95;;;;;;;14.71;100.00;100282.28;5073181;28;20048;-55
2023/08/30 10:32:23;;;;;;;11.82;8.88;;;;;;;14.73;100.00;100290.09;5072975;28;20044;-54
2023/08/30 10:34:52;;;;;;;12.20;9.25;;;;;;;14.88;100.00;100283.38;5071925;28;20434;-55
2023/08/30 10:37:24;;;;;;;12.93;9.80;;;;;;;15.08;100.00;100283.34;5073237;28;20060;-56
2023/08/30 10:39:59;;;;;;;12.07;9.85;;;;;;;15.19;100.00;100291.13;5073342;28;20036;-56
2023/08/30 10:42:28;;;;;;;13.80;10.27;;;;;;;15.32;100.00;100281.03;5073380;28;20394;-56
2023/08/30 10:44:59;;;;;;;13.60;10.30;;;;;;;15.38;100.00;100285.78;5073127;28;20063;-55
2023/08/30 10:47:32;;;;;;;11.98;10.18;;;;;;;15.53;100.00;100277.38;5073095;28;20132;-56
2023/08/30 10:50:04;;;;;;;12.73;10.30;;;;;;;15.60;100.00;100277.59;5073281;28;20053;-56
2023/08/30 10:52:32;;;;;;;13.10;10.10;;;;;;;15.65;100.00;100278.84;5073377;28;20076;-54
2023/08/30 10:55:09;;;;;;;11.77;10.05;;;;;;;15.72;100.00;100287.03;5073098;28;20044;-55
2023/08/30 10:57:38;;;;;;;12.98;9.75;;;;;;;15.78;100.00;100273.19;5071633;28;20075;-56
2023/08/30 11:00:13;;;;;;;13.68;10.60;;;;;;;15.89;100.00;100288.09;5073126;28;20049;-56
2023/08/30 11:02:46;;;;;;;11.93;9.80;;;;;;;15.91;100.00;100287.94;5073116;28;20053;-56
2023/08/30 11:05:16;;;;;;;13.40;10.82;;;;;;;16.03;100.00;100279.66;5073003;28;20139;-56
2023/08/30 11:07:45;;;;;;;12.15;9.98;;;;;;;16.14;100.00;100270.66;5072730;28;20048;-54
2023/08/30 11:10:15;;;;;;;12.02;10.25;;;;;;;16.22;100.00;100264.56;5072740;28;20048;-57
2023/08/30 11:12:44;;;;;;;11.75;10.05;;;;;;;16.22;100.00;100259.25;5072736;28;20139;-56
2023/08/30 11:15:14;;;;;;;13.50;11.77;;;;;;;16.50;100.00;100264.50;5072539;28;20045;-56
2023/08/30 11:17:42;;;;;;;12.00;10.65;;;;;;;16.54;100.00;100263.22;5071026;28;20411;-56